Terminal Aerodrome Forecast
Issued by NWS Sterling, VA

Current Version | Previous Version | Text Only | Print | Product List | Glossary On
Versions: 1 2 3 4 5 6 7 8 9 10 11 12 13 14 15 16
000
FTUS41 KLWX 261136
TAFMRB
TAF
KMRB 261136Z 2612/2712 10003KT 1 1/2SM -SN OVC025
     FM261300 03007KT 4SM -SN OVC015
     FM261500 03004KT P6SM -SN OVC020
     FM270200 30004KT P6SM -SN OVC025=

USA.gov is the U.S. government's official web portal to all federal, state and local government web resources and services.